Fort Worth, TX (76137)

4:35 PM CST op 31 januari 2015 (GMT -0600)
North Ft Worth | Change Station
CLOSE
Current Station
Persoonlijk weerstation
Location: Haltom City, TX
Geometrische hoogte: 600 ft
Nabije weerstations

Hoogte 600 ft 32.86 °N, 97.28 °W | Updated 20 seconds ago

Regen
Regen
49.6 °F
Voelt als 50 °F
N
0.0
Wind Variabel Wind van zuid
Gusts 0.0 mijl/u

Vandaag
Hoog -- | Laag -- °F
--% Kans op neerslag
Gisteren
Hoog -- | Laag -- °F
Precip. -- inches
7:24 AM 6:00 PM
Wassende maan, 92% visible
Druk 30.00 inches
Zicht 1.5 mijlen
Wolken Geheel bewolkt 1100 ft
Gevoelstemperatuur 50 °F
Dauwpunt 37 °F
Vochtigheid 62%
Neerslag 0.17 inches
Dikte sneeuw Niet beschikbaar.
UV 0.0 van de 12
Pollen 7.00 van de 12
Luchtkwaliteit Niet beschikbaar.
Flu Activity Niet beschikbaar.
SPECI KFTW 312204Z 15007KT 1 1/2SM -RA BR OVC011 09/08 A3000 RMK AO2 CIG 004V013 P0000 T00940078

More Conditions Fewer Conditions

Druk 30.00 inches
Zicht 1.5 mijlen
Wolken Geheel bewolkt 1100 ft
Gevoelstemperatuur 50 °F
Dauwpunt 37 °F
Vochtigheid 62%
Neerslag 0.17 inches
Dikte sneeuw Niet beschikbaar.
UV 0.0 van de 12
Pollen 7.00 van de 12
Luchtkwaliteit Niet beschikbaar.
Flu Activity Niet beschikbaar.
SPECI KFTW 312204Z 15007KT 1 1/2SM -RA BR OVC011 09/08 A3000 RMK AO2 CIG 004V013 P0000 T00940078

More Conditions Fewer Conditions

Nowcast | as of 2:03 PM CST on January 31, 2015

Rain will continue to spread northeast across the region this afternoon through tonight. Most of the rain was occurring along and west of the I-35 corridor...but there were small patches occurring to the east. So far rain amounts have been light overall... but they should increase as the day wears on. Amounts through 6 PM...might average around one tenth of an inch from I-35 westward with more expected over night area wide. Otherwise...skies will remain cloudy with light southeast winds of 10 to 15 mph. Temperatures will remain in the mid 40s to around 50 where the rain is steady...but in the low to upper 50s elsewhere.

×

10-Day Weather Forecast

Almanac

Astronomie

Jan. 31, 2015 Opkomst Ondergang
Werkelijke tijd
Burgerlijke schemering
Nautische schemering
Astronomische schemering
Maan
Golflengte van het zichtbare licht
Daglengte
Tomorrow will be .
, % of the Moon is Illuminated

Extremen vandaag

State Highs State Lows

Community

WunderPhotos

Upload Photos

1,792,226 foto’s ge-upload!

WunderBlogs® & News

Nearby

Luchtkwaliteit

  Luchtkwaliteit LK-index Verontreinigende stof
Not available.

Dikte sneeuw

Station Depth Geometrische hoogte

Aardbevingen

Stad Distance Mag. Time & Date
Minimum magnitude displayed is 2.5.

Watertemperatuur langs de kust

Plaats Temperatuur

Nabije weerstations